x

Caribbean Valley - 76 Nm Ssw Of Plymouth, Montserrat (42060) Wave Buoy

7:50am - Sat 1st Nov 2014 All times are AST. -4 hours from GMT.

  • Sig Wave height 3.3ft
  • Swell Direction
  • Peak Period 5s
  • Average Period 5s
  • Wind
    11mph, 13mph gusts
  • Sea Temp 85°f
  • Air Temp 84°f
  • Sea Pressure 1014.4mb
  • Caribbean Valley - 76 Nm Ssw Of Plymouth, Montserrat
  • Caribbean Valley - 76 Nm Ssw Of Plymouth, Montserrat

More Historic Weather Station data

Upgrade to MSW Pro to gain access to the past 30 days of data for over 8000 Wavebouys and Weather Stations around the globe.

Join Pro

Comparision Forecast

View Surf forecast
   
Sat 11/01 7:50am 3.5ft 5s 5s 11 13 mph 1014.4mb 85f 84f
5:50am 3.5ft 8s 5s 13 16 mph 1013mb 85f 83f
4:50am 3.5ft 5s 5s 11 13 mph 1012.2mb 85f 83f
3:50am 4ft 5s 5s 16 20 mph 1011.8mb 85f 84f
2:50am 3.5ft 6s 5s 13 16 mph 1011.9mb 85f 83f
1:50am 3.5ft 6s 5s 13 16 mph 1012.5mb 85f 83f
12:50am 4ft 5s 5s 16 18 mph 1012.8mb 85f 84f
Fri 10/31 11:50pm 3.5ft 5s 5s 16 18 mph 1012.9mb 85f 84f
10:50pm 3.5ft 5s 5s 16 18 mph 1013.2mb 85f 84f
9:50pm 3.5ft 6s 5s 13 18 mph 1013.2mb 85f 84f
8:50pm 3.5ft 5s 5s 13 16 mph 1012.9mb 85f 84f
7:50pm 3.5ft 6s 5s 11 13 mph 1012.5mb 85f 84f
6:50pm 3ft 8s 5s 11 13 mph 1011.5mb 85f 84f
5:50pm 3.5ft 5s 5s 9 11 mph 1011.3mb 85f 84f
4:50pm 3.5ft 8s 5s 9
mph
1011.1mb 85f 84f
3:50pm 3.5ft 8s 5s 11 13 mph 1010.8mb 85f 84f
2:50pm 3.5ft 8s 5s 13 18 mph 1010.5mb 85f 84f
1:50pm 3.5ft 8s 5s 13 16 mph 1010.7mb 85f 83f
12:50pm 3.5ft 8s 5s 13 16 mph 1011.6mb 85f 83f
11:50am 3.5ft 8s 5s 11 16 mph 1012.5mb 85f 83f
10:50am 3.5ft 8s 5s 13 16 mph 1012.8mb 85f 84f
9:50am 3.5ft 6s 5s 13 16 mph 1013mb 85f 84f
8:50am 3.5ft 6s 5s 16 20 mph 1012.1mb 85f 84f
7:50am 3.5ft 5s 5s 13 16 mph 1011.4mb 85f 83f
6:50am 3ft 6s 5s 16 18 mph 1010.5mb 85f 83f
5:50am 3ft 8s 5s 13 16 mph 1009.9mb 85f 83f
4:50am 3.5ft 9s 5s 13 16 mph 1009.4mb 85f 83f
3:50am 3.5ft 8s 5s 13 16 mph 1009.3mb 85f 83f
2:50am 3.5ft 9s 5s 13
mph
1009.8mb 85f 83f
1:50am 3.5ft 5s 5s 11 16 mph 1010.3mb 85f 83f
12:50am 3.5ft 9s 5s 11 16 mph 1010.8mb 85f 83f
Thu 10/30 11:50pm 3.5ft 8s 5s 16 18 mph 1010.6mb 85f 83f
10:50pm 3.5ft 5s 5s 11 16 mph 1011mb 85f 83f
9:50pm 3.5ft 9s 5s 13 18 mph 1010.5mb 85f 83f
8:50pm 3.5ft 6s 5s 13 16 mph 1010.4mb 85f 83f
7:50pm 3.5ft 5s 5s 13 16 mph 1010mb 85f 84f
6:50pm 3.5ft 9s 5s 16 18 mph 1009.6mb 85f 84f
5:50pm 3.5ft 5s 5s 13 16 mph 1009.5mb 85f 83f
4:50pm 3.5ft 5s 4s 13 18 mph 1009mb 85f 84f
3:50pm 3.5ft 9s 5s 13 18 mph 1008.6mb 85f 84f
2:50pm 3.5ft 4s 4s 16 18 mph 1008.8mb 85f 84f
1:50pm 3.5ft 5s 4s 16 20 mph 1009mb 85f 84f
12:50pm 3ft 4s 4s 18 20 mph 1009.5mb 85f 84f
11:50am 3.5ft 8s 4s 16 18 mph 1010.6mb 85f 84f
10:50am 3ft 9s 5s 16 20 mph 1011.2mb 85f 84f
9:50am 3ft 8s 5s 13 16 mph 1011.3mb 85f 84f
8:50am 3ft 8s 5s 13 18 mph 1010.7mb 85f 84f
7:50am 2.5ft 8s 5s 11 13 mph 1010.4mb 85f 83f
6:50am 2.5ft 5s 5s 11 18 mph 1009.9mb 85f 83f
5:50am 2.5ft 9s 5s 11 13 mph 1009.4mb 85f 82f
4:50am 2.5ft 9s 4s 11 13 mph 1009mb 85f 83f
3:50am 2.5ft 8s 5s 11 13 mph 1008.6mb 85f 82f
2:50am 2.5ft 8s 5s 11 16 mph 1008.8mb 85f 82f
1:50am 2.5ft 8s 5s 9 13 mph 1009.5mb 85f 83f
12:50am 2.5ft 8s 5s 13 16 mph 1009.9mb 85f 83f
Wed 10/29 10:50pm 3ft 7s 5s 11 16 mph 1010.9mb 85f 83f
9:50pm 3ft 8s 5s 11 13 mph 1011.3mb 85f 83f
8:50pm 3ft 8s 5s 9 11 mph 1011.2mb 85f 83f
7:50pm 3ft 5s 5s 9 11 mph 1010.7mb 85f 83f
6:50pm 2.5ft 5s 5s 9 11 mph 1010.3mb 85f 83f
5:50pm 3ft 8s 5s 11 13 mph 1009.8mb 85f 83f
4:50pm 3ft 8s 4s 13 16 mph 1009.6mb 85f 82f
3:50pm 3.5ft 4s 4s 16 18 mph 1009.8mb 85f 81f
2:50pm 3ft 4s  -  18 22 mph 1010mb 85f 80f
12:50pm 3ft 8s 4s 18 20 mph 1011.4mb 85f 81f
11:50am 2.5ft 9s 4s 16 18 mph 1012.2mb 85f 80f
10:50am 3ft 8s 4s 16 20 mph 1013.1mb 85f 78f
9:50am 2.5ft 8s 5s 11 16 mph 1013.4mb 85f 80f
8:50am 2.5ft 8s 5s 2 4 mph 1013.2mb 85f 81f
7:50am 2.5ft 8s 6s 7 9 mph 1012.3mb 85f 80f
6:50am 2.5ft 9s 5s 7 9 mph 1012.1mb 85f 82f
5:50am 2.5ft 9s 5s 4 7 mph 1011.4mb 85f 81f
4:50am 2.5ft 9s 6s 11 18 mph 1011.1mb 85f 81f
3:50am 2.5ft 9s 6s 2 4 mph 1011.2mb 85f 82f
2:50am 2.5ft 9s 5s 2
mph
1011.2mb 85f 81f
1:50am 2.5ft 9s 5s 2
mph
1011.7mb 85f 81f
12:50am 2.5ft 9s 5s 2 4 mph 1012.3mb 85f 81f
Tue 10/28 11:50pm 2.5ft 8s 5s 2 4 mph 1012.9mb 85f 80f
10:50pm 2.5ft 9s 5s 7
mph
1013.4mb 85f 82f
9:50pm 2ft 7s 5s 7 9 mph 1013mb 85f 80f
8:50pm 2.5ft 8s 5s 7 11 mph 1013.1mb 85f 83f
7:50pm 2.5ft 8s 5s 7 9 mph 1012.6mb 85f 83f
6:50pm 2.5ft 8s 5s 9 11 mph 1012.2mb 85f 82f
5:50pm 2ft 6s 4s 9 11 mph 1011.9mb 85f 82f
4:50pm 2ft 6s 5s 9 11 mph 1011.6mb 85f 82f
3:50pm 2ft 8s 5s 9 11 mph 1011.4mb 85f 82f
2:50pm 2.5ft 8s 5s 9 11 mph 1011.6mb 85f 83f
1:50pm 2.5ft 7s 4s 4 7 mph 1012.1mb 85f 82f
12:50pm 2.5ft 8s 5s 9 11 mph 1012.8mb 85f 82f